sensor_id;sensor_type;location;lat;lon;timestamp;P1;durP1;ratioP1;P2;durP2;ratioP2
42226;SDS011;27892;52.378;13.122;2022-12-07T00:01:06;8.03;;;6.13;;
42226;SDS011;27892;52.378;13.122;2022-12-07T00:03:37;6.50;;;5.33;;
42226;SDS011;27892;52.378;13.122;2022-12-07T00:06:04;7.30;;;5.90;;
42226;SDS011;27892;52.378;13.122;2022-12-07T00:08:31;5.83;;;4.77;;
42226;SDS011;27892;52.378;13.122;2022-12-07T00:11:05;7.97;;;6.03;;
42226;SDS011;27892;52.378;13.122;2022-12-07T00:13:32;9.20;;;7.50;;
42226;SDS011;27892;52.378;13.122;2022-12-07T00:16:00;7.83;;;6.43;;
42226;SDS011;27892;52.378;13.122;2022-12-07T00:18:33;8.00;;;6.13;;
42226;SDS011;27892;52.378;13.122;2022-12-07T00:21:03;6.90;;;5.30;;
42226;SDS011;27892;52.378;13.122;2022-12-07T00:23:34;7.17;;;5.37;;
42226;SDS011;27892;52.378;13.122;2022-12-07T00:26:07;6.63;;;5.00;;
42226;SDS011;27892;52.378;13.122;2022-12-07T00:28:41;6.30;;;5.20;;
42226;SDS011;27892;52.378;13.122;2022-12-07T00:31:15;7.00;;;5.40;;
42226;SDS011;27892;52.378;13.122;2022-12-07T00:33:42;5.60;;;4.90;;
42226;SDS011;27892;52.378;13.122;2022-12-07T00:36:09;5.90;;;5.07;;
42226;SDS011;27892;52.378;13.122;2022-12-07T00:38:37;6.13;;;5.30;;
42226;SDS011;27892;52.378;13.122;2022-12-07T00:41:04;6.30;;;4.90;;
42226;SDS011;27892;52.378;13.122;2022-12-07T00:43:31;5.87;;;4.87;;
42226;SDS011;27892;52.378;13.122;2022-12-07T00:45:58;5.33;;;4.53;;
42226;SDS011;27892;52.378;13.122;2022-12-07T00:48:24;4.90;;;4.10;;
42226;SDS011;27892;52.378;13.122;2022-12-07T00:50:50;4.53;;;3.90;;
42226;SDS011;27892;52.378;13.122;2022-12-07T00:53:16;4.60;;;3.70;;
42226;SDS011;27892;52.378;13.122;2022-12-07T00:55:42;4.43;;;4.03;;
42226;SDS011;27892;52.378;13.122;2022-12-07T00:58:08;3.80;;;3.40;;
42226;SDS011;27892;52.378;13.122;2022-12-07T01:00:35;3.57;;;3.27;;
42226;SDS011;27892;52.378;13.122;2022-12-07T01:03:03;3.47;;;3.17;;
42226;SDS011;27892;52.378;13.122;2022-12-07T01:05:30;4.07;;;3.77;;
42226;SDS011;27892;52.378;13.122;2022-12-07T01:07:55;5.10;;;3.90;;
42226;SDS011;27892;52.378;13.122;2022-12-07T01:10:21;4.67;;;3.43;;
42226;SDS011;27892;52.378;13.122;2022-12-07T01:12:47;4.30;;;3.90;;
42226;SDS011;27892;52.378;13.122;2022-12-07T01:15:13;3.47;;;3.17;;
42226;SDS011;27892;52.378;13.122;2022-12-07T01:17:39;3.17;;;2.90;;
42226;SDS011;27892;52.378;13.122;2022-12-07T01:20:06;3.90;;;3.53;;
42226;SDS011;27892;52.378;13.122;2022-12-07T01:22:36;3.93;;;3.53;;
42226;SDS011;27892;52.378;13.122;2022-12-07T01:25:08;3.37;;;3.07;;
42226;SDS011;27892;52.378;13.122;2022-12-07T01:27:35;3.37;;;3.07;;
42226;SDS011;27892;52.378;13.122;2022-12-07T01:30:01;3.40;;;3.10;;
42226;SDS011;27892;52.378;13.122;2022-12-07T01:32:28;3.40;;;3.00;;
42226;SDS011;27892;52.378;13.122;2022-12-07T01:34:54;3.43;;;3.13;;
42226;SDS011;27892;52.378;13.122;2022-12-07T01:37:19;3.97;;;3.57;;
42226;SDS011;27892;52.378;13.122;2022-12-07T01:39:48;3.37;;;3.07;;
42226;SDS011;27892;52.378;13.122;2022-12-07T01:42:14;2.97;;;2.73;;
42226;SDS011;27892;52.378;13.122;2022-12-07T01:47:51;3.70;;;3.20;;
42226;SDS011;27892;52.378;13.122;2022-12-07T01:50:20;3.13;;;2.70;;
42226;SDS011;27892;52.378;13.122;2022-12-07T01:52:49;3.47;;;3.17;;
42226;SDS011;27892;52.378;13.122;2022-12-07T01:55:17;3.50;;;3.20;;
42226;SDS011;27892;52.378;13.122;2022-12-07T01:57:44;3.70;;;2.90;;
42226;SDS011;27892;52.378;13.122;2022-12-07T02:00:13;3.30;;;3.00;;
42226;SDS011;27892;52.378;13.122;2022-12-07T02:02:44;3.60;;;3.30;;
42226;SDS011;27892;52.378;13.122;2022-12-07T02:05:20;4.03;;;3.20;;
42226;SDS011;27892;52.378;13.122;2022-12-07T02:07:47;3.40;;;3.10;;
42226;SDS011;27892;52.378;13.122;2022-12-07T02:12:58;3.93;;;3.60;;
42226;SDS011;27892;52.378;13.122;2022-12-07T02:23:18;3.60;;;3.30;;
42226;SDS011;27892;52.378;13.122;2022-12-07T02:29:09;4.50;;;3.70;;
42226;SDS011;27892;52.378;13.122;2022-12-07T02:31:36;4.67;;;4.13;;
42226;SDS011;27892;52.378;13.122;2022-12-07T02:34:09;4.87;;;4.03;;
42226;SDS011;27892;52.378;13.122;2022-12-07T02:36:46;4.97;;;3.90;;
42226;SDS011;27892;52.378;13.122;2022-12-07T02:39:35;5.37;;;4.20;;
42226;SDS011;27892;52.378;13.122;2022-12-07T02:42:09;4.70;;;4.20;;
42226;SDS011;27892;52.378;13.122;2022-12-07T02:44:40;4.90;;;4.30;;
42226;SDS011;27892;52.378;13.122;2022-12-07T02:47:07;6.30;;;4.73;;
42226;SDS011;27892;52.378;13.122;2022-12-07T02:49:36;6.53;;;4.47;;
42226;SDS011;27892;52.378;13.122;2022-12-07T02:52:04;5.27;;;4.40;;
42226;SDS011;27892;52.378;13.122;2022-12-07T02:54:30;7.03;;;4.40;;
42226;SDS011;27892;52.378;13.122;2022-12-07T02:57:06;6.33;;;4.43;;
42226;SDS011;27892;52.378;13.122;2022-12-07T03:11:02;6.43;;;4.83;;
42226;SDS011;27892;52.378;13.122;2022-12-07T03:16:19;6.57;;;4.53;;
42226;SDS011;27892;52.378;13.122;2022-12-07T03:18:51;7.80;;;5.80;;
42226;SDS011;27892;52.378;13.122;2022-12-07T03:21:19;7.50;;;5.57;;
42226;SDS011;27892;52.378;13.122;2022-12-07T03:23:49;9.00;;;5.87;;
42226;SDS011;27892;52.378;13.122;2022-12-07T03:26:19;6.60;;;5.50;;
42226;SDS011;27892;52.378;13.122;2022-12-07T03:28:50;7.40;;;5.33;;
42226;SDS011;27892;52.378;13.122;2022-12-07T03:31:27;9.13;;;6.07;;
42226;SDS011;27892;52.378;13.122;2022-12-07T03:34:19;7.37;;;5.50;;
42226;SDS011;27892;52.378;13.122;2022-12-07T03:37:42;10.10;;;6.20;;
42226;SDS011;27892;52.378;13.122;2022-12-07T03:43:39;8.80;;;5.40;;
42226;SDS011;27892;52.378;13.122;2022-12-07T03:49:14;8.00;;;5.43;;
42226;SDS011;27892;52.378;13.122;2022-12-07T03:52:17;9.10;;;5.43;;
42226;SDS011;27892;52.378;13.122;2022-12-07T03:57:31;12.40;;;7.87;;
42226;SDS011;27892;52.378;13.122;2022-12-07T03:59:59;12.30;;;7.37;;
42226;SDS011;27892;52.378;13.122;2022-12-07T04:02:26;10.37;;;6.60;;
42226;SDS011;27892;52.378;13.122;2022-12-07T04:04:52;10.97;;;7.27;;
42226;SDS011;27892;52.378;13.122;2022-12-07T04:07:19;9.30;;;6.00;;
42226;SDS011;27892;52.378;13.122;2022-12-07T04:09:44;11.03;;;7.07;;
42226;SDS011;27892;52.378;13.122;2022-12-07T04:12:10;12.40;;;7.57;;
42226;SDS011;27892;52.378;13.122;2022-12-07T04:14:36;12.23;;;7.80;;
42226;SDS011;27892;52.378;13.122;2022-12-07T04:17:01;9.97;;;6.70;;
42226;SDS011;27892;52.378;13.122;2022-12-07T04:19:29;13.07;;;8.63;;
42226;SDS011;27892;52.378;13.122;2022-12-07T04:21:59;13.50;;;8.57;;
42226;SDS011;27892;52.378;13.122;2022-12-07T04:24:28;13.50;;;8.10;;
42226;SDS011;27892;52.378;13.122;2022-12-07T04:26:54;12.80;;;7.87;;
42226;SDS011;27892;52.378;13.122;2022-12-07T04:29:20;14.53;;;9.13;;
42226;SDS011;27892;52.378;13.122;2022-12-07T04:31:47;15.77;;;9.50;;
42226;SDS011;27892;52.378;13.122;2022-12-07T04:34:13;15.57;;;9.70;;
42226;SDS011;27892;52.378;13.122;2022-12-07T04:36:39;13.97;;;8.60;;
42226;SDS011;27892;52.378;13.122;2022-12-07T04:39:06;14.73;;;8.93;;
42226;SDS011;27892;52.378;13.122;2022-12-07T04:41:33;16.37;;;9.90;;
42226;SDS011;27892;52.378;13.122;2022-12-07T04:43:59;17.40;;;10.40;;
42226;SDS011;27892;52.378;13.122;2022-12-07T04:46:29;18.13;;;10.90;;
42226;SDS011;27892;52.378;13.122;2022-12-07T04:48:55;16.63;;;10.50;;
42226;SDS011;27892;52.378;13.122;2022-12-07T04:51:22;15.30;;;9.53;;
42226;SDS011;27892;52.378;13.122;2022-12-07T04:53:50;20.13;;;11.50;;
42226;SDS011;27892;52.378;13.122;2022-12-07T04:56:16;21.03;;;12.77;;
42226;SDS011;27892;52.378;13.122;2022-12-07T04:58:43;18.87;;;10.83;;
42226;SDS011;27892;52.378;13.122;2022-12-07T05:01:10;16.87;;;10.20;;
42226;SDS011;27892;52.378;13.122;2022-12-07T05:03:36;14.20;;;8.87;;
42226;SDS011;27892;52.378;13.122;2022-12-07T05:06:02;14.63;;;9.47;;
42226;SDS011;27892;52.378;13.122;2022-12-07T05:08:29;19.13;;;10.03;;
42226;SDS011;27892;52.378;13.122;2022-12-07T05:10:54;20.93;;;12.30;;
42226;SDS011;27892;52.378;13.122;2022-12-07T05:13:20;15.67;;;10.03;;
42226;SDS011;27892;52.378;13.122;2022-12-07T05:15:48;17.83;;;9.93;;
42226;SDS011;27892;52.378;13.122;2022-12-07T05:18:14;13.77;;;8.40;;
42226;SDS011;27892;52.378;13.122;2022-12-07T05:20:40;16.63;;;9.43;;
42226;SDS011;27892;52.378;13.122;2022-12-07T05:23:06;19.63;;;11.00;;
42226;SDS011;27892;52.378;13.122;2022-12-07T05:25:34;24.13;;;12.93;;
42226;SDS011;27892;52.378;13.122;2022-12-07T05:28:19;22.30;;;12.67;;
42226;SDS011;27892;52.378;13.122;2022-12-07T05:30:45;21.27;;;12.03;;
42226;SDS011;27892;52.378;13.122;2022-12-07T05:33:11;22.20;;;12.73;;
42226;SDS011;27892;52.378;13.122;2022-12-07T05:35:36;20.37;;;11.73;;
42226;SDS011;27892;52.378;13.122;2022-12-07T05:38:02;19.60;;;11.73;;
42226;SDS011;27892;52.378;13.122;2022-12-07T05:40:28;23.73;;;12.57;;
42226;SDS011;27892;52.378;13.122;2022-12-07T05:42:54;18.87;;;11.80;;
42226;SDS011;27892;52.378;13.122;2022-12-07T05:45:19;21.20;;;11.80;;
42226;SDS011;27892;52.378;13.122;2022-12-07T05:47:45;19.57;;;11.80;;
42226;SDS011;27892;52.378;13.122;2022-12-07T05:50:11;23.53;;;12.67;;
42226;SDS011;27892;52.378;13.122;2022-12-07T05:52:36;20.07;;;11.73;;
42226;SDS011;27892;52.378;13.122;2022-12-07T05:55:02;21.23;;;12.37;;
42226;SDS011;27892;52.378;13.122;2022-12-07T05:57:28;20.47;;;10.90;;
42226;SDS011;27892;52.378;13.122;2022-12-07T05:59:53;21.63;;;13.10;;
42226;SDS011;27892;52.378;13.122;2022-12-07T06:02:19;18.20;;;10.70;;
42226;SDS011;27892;52.378;13.122;2022-12-07T06:04:45;22.30;;;11.73;;
42226;SDS011;27892;52.378;13.122;2022-12-07T06:07:12;20.67;;;12.50;;
42226;SDS011;27892;52.378;13.122;2022-12-07T06:09:39;21.13;;;12.37;;
42226;SDS011;27892;52.378;13.122;2022-12-07T06:12:05;22.50;;;12.87;;
42226;SDS011;27892;52.378;13.122;2022-12-07T06:14:49;22.17;;;12.40;;
42226;SDS011;27892;52.378;13.122;2022-12-07T06:17:15;19.53;;;11.93;;
42226;SDS011;27892;52.378;13.122;2022-12-07T06:19:41;21.70;;;12.57;;
42226;SDS011;27892;52.378;13.122;2022-12-07T06:22:07;24.23;;;14.00;;
42226;SDS011;27892;52.378;13.122;2022-12-07T06:24:34;23.60;;;13.83;;
42226;SDS011;27892;52.378;13.122;2022-12-07T06:27:00;19.37;;;12.53;;
42226;SDS011;27892;52.378;13.122;2022-12-07T06:29:26;23.43;;;14.13;;
42226;SDS011;27892;52.378;13.122;2022-12-07T06:31:51;23.53;;;13.87;;
42226;SDS011;27892;52.378;13.122;2022-12-07T06:34:18;20.53;;;12.27;;
42226;SDS011;27892;52.378;13.122;2022-12-07T06:36:45;17.70;;;11.53;;
42226;SDS011;27892;52.378;13.122;2022-12-07T06:39:16;20.37;;;12.37;;
42226;SDS011;27892;52.378;13.122;2022-12-07T06:41:43;21.20;;;12.83;;
42226;SDS011;27892;52.378;13.122;2022-12-07T06:44:09;22.27;;;12.90;;
42226;SDS011;27892;52.378;13.122;2022-12-07T06:46:34;24.53;;;14.03;;
42226;SDS011;27892;52.378;13.122;2022-12-07T06:49:00;23.07;;;12.63;;
42226;SDS011;27892;52.378;13.122;2022-12-07T06:51:26;19.77;;;12.70;;
42226;SDS011;27892;52.378;13.122;2022-12-07T06:53:52;20.80;;;12.27;;
42226;SDS011;27892;52.378;13.122;2022-12-07T06:56:18;22.60;;;13.67;;
42226;SDS011;27892;52.378;13.122;2022-12-07T06:58:44;23.77;;;13.00;;
42226;SDS011;27892;52.378;13.122;2022-12-07T07:01:13;19.87;;;12.13;;
42226;SDS011;27892;52.378;13.122;2022-12-07T07:03:40;20.37;;;12.50;;
42226;SDS011;27892;52.378;13.122;2022-12-07T07:06:06;23.23;;;12.93;;
42226;SDS011;27892;52.378;13.122;2022-12-07T07:08:33;19.43;;;12.97;;
42226;SDS011;27892;52.378;13.122;2022-12-07T07:11:00;21.37;;;12.50;;
42226;SDS011;27892;52.378;13.122;2022-12-07T07:13:25;21.40;;;13.33;;
42226;SDS011;27892;52.378;13.122;2022-12-07T07:15:52;22.17;;;13.00;;
42226;SDS011;27892;52.378;13.122;2022-12-07T07:18:18;20.23;;;12.40;;
42226;SDS011;27892;52.378;13.122;2022-12-07T07:20:44;20.70;;;11.43;;
42226;SDS011;27892;52.378;13.122;2022-12-07T07:23:09;18.80;;;12.47;;
42226;SDS011;27892;52.378;13.122;2022-12-07T07:25:35;21.77;;;13.10;;
42226;SDS011;27892;52.378;13.122;2022-12-07T07:28:02;19.83;;;11.93;;
42226;SDS011;27892;52.378;13.122;2022-12-07T07:30:28;20.67;;;12.47;;
42226;SDS011;27892;52.378;13.122;2022-12-07T07:32:57;21.63;;;13.80;;
42226;SDS011;27892;52.378;13.122;2022-12-07T07:35:23;20.70;;;12.57;;
42226;SDS011;27892;52.378;13.122;2022-12-07T07:37:50;18.37;;;11.27;;
42226;SDS011;27892;52.378;13.122;2022-12-07T07:40:15;20.07;;;12.70;;
42226;SDS011;27892;52.378;13.122;2022-12-07T07:42:41;19.90;;;12.73;;
42226;SDS011;27892;52.378;13.122;2022-12-07T07:45:07;18.70;;;11.93;;
42226;SDS011;27892;52.378;13.122;2022-12-07T07:47:34;18.27;;;11.70;;
42226;SDS011;27892;52.378;13.122;2022-12-07T07:49:59;19.27;;;12.37;;
42226;SDS011;27892;52.378;13.122;2022-12-07T07:52:25;19.07;;;12.00;;
42226;SDS011;27892;52.378;13.122;2022-12-07T07:54:51;18.77;;;11.63;;
42226;SDS011;27892;52.378;13.122;2022-12-07T07:57:17;20.83;;;12.53;;
42226;SDS011;27892;52.378;13.122;2022-12-07T07:59:43;19.50;;;12.07;;
42226;SDS011;27892;52.378;13.122;2022-12-07T08:02:13;21.93;;;13.67;;
42226;SDS011;27892;52.378;13.122;2022-12-07T08:04:40;17.50;;;11.07;;
42226;SDS011;27892;52.378;13.122;2022-12-07T08:07:06;18.33;;;12.07;;
42226;SDS011;27892;52.378;13.122;2022-12-07T08:09:31;17.67;;;11.13;;
42226;SDS011;27892;52.378;13.122;2022-12-07T08:11:57;21.60;;;11.97;;
42226;SDS011;27892;52.378;13.122;2022-12-07T08:14:23;16.50;;;10.40;;
42226;SDS011;27892;52.378;13.122;2022-12-07T08:16:49;19.13;;;10.70;;
42226;SDS011;27892;52.378;13.122;2022-12-07T08:19:15;14.60;;;8.90;;
42226;SDS011;27892;52.378;13.122;2022-12-07T08:21:41;12.83;;;8.50;;
42226;SDS011;27892;52.378;13.122;2022-12-07T08:24:06;11.83;;;8.83;;
42226;SDS011;27892;52.378;13.122;2022-12-07T08:26:32;13.20;;;7.97;;
42226;SDS011;27892;52.378;13.122;2022-12-07T08:28:59;9.07;;;6.73;;
42226;SDS011;27892;52.378;13.122;2022-12-07T08:31:24;10.47;;;7.20;;
42226;SDS011;27892;52.378;13.122;2022-12-07T08:33:50;8.23;;;6.60;;
42226;SDS011;27892;52.378;13.122;2022-12-07T08:36:16;6.53;;;5.67;;
42226;SDS011;27892;52.378;13.122;2022-12-07T08:38:42;6.07;;;5.27;;
42226;SDS011;27892;52.378;13.122;2022-12-07T08:41:07;5.33;;;4.40;;
42226;SDS011;27892;52.378;13.122;2022-12-07T08:43:33;5.93;;;4.47;;
42226;SDS011;27892;52.378;13.122;2022-12-07T08:46:08;6.17;;;4.97;;
42226;SDS011;27892;52.378;13.122;2022-12-07T08:48:41;4.13;;;3.60;;
42226;SDS011;27892;52.378;13.122;2022-12-07T08:51:11;5.37;;;4.17;;
42226;SDS011;27892;52.378;13.122;2022-12-07T08:53:37;4.30;;;3.43;;
42226;SDS011;27892;52.378;13.122;2022-12-07T08:56:04;4.03;;;3.40;;
42226;SDS011;27892;52.378;13.122;2022-12-07T08:58:32;4.10;;;3.43;;
42226;SDS011;27892;52.378;13.122;2022-12-07T09:00:58;3.80;;;3.40;;
42226;SDS011;27892;52.378;13.122;2022-12-07T09:03:24;3.90;;;3.60;;
42226;SDS011;27892;52.378;13.122;2022-12-07T09:05:50;5.47;;;3.80;;
42226;SDS011;27892;52.378;13.122;2022-12-07T09:08:17;4.23;;;3.30;;
42226;SDS011;27892;52.378;13.122;2022-12-07T09:10:43;5.07;;;3.70;;
42226;SDS011;27892;52.378;13.122;2022-12-07T09:13:09;4.23;;;3.47;;
42226;SDS011;27892;52.378;13.122;2022-12-07T09:15:34;4.37;;;3.60;;
42226;SDS011;27892;52.378;13.122;2022-12-07T09:18:00;5.20;;;3.30;;
42226;SDS011;27892;52.378;13.122;2022-12-07T09:20:25;5.43;;;3.90;;
42226;SDS011;27892;52.378;13.122;2022-12-07T09:22:51;4.10;;;3.27;;
42226;SDS011;27892;52.378;13.122;2022-12-07T09:25:17;5.03;;;3.60;;
42226;SDS011;27892;52.378;13.122;2022-12-07T09:27:42;4.43;;;3.70;;
42226;SDS011;27892;52.378;13.122;2022-12-07T09:30:08;4.40;;;3.50;;
42226;SDS011;27892;52.378;13.122;2022-12-07T09:32:34;3.57;;;3.13;;
42226;SDS011;27892;52.378;13.122;2022-12-07T09:35:00;5.83;;;3.90;;
42226;SDS011;27892;52.378;13.122;2022-12-07T09:37:25;4.20;;;3.30;;
42226;SDS011;27892;52.378;13.122;2022-12-07T09:39:51;4.37;;;3.90;;
42226;SDS011;27892;52.378;13.122;2022-12-07T09:42:38;5.07;;;3.97;;
42226;SDS011;27892;52.378;13.122;2022-12-07T09:45:13;3.50;;;3.20;;
42226;SDS011;27892;52.378;13.122;2022-12-07T09:47:41;7.93;;;3.60;;
42226;SDS011;27892;52.378;13.122;2022-12-07T09:50:19;4.67;;;3.80;;
42226;SDS011;27892;52.378;13.122;2022-12-07T09:52:47;5.37;;;4.00;;
42226;SDS011;27892;52.378;13.122;2022-12-07T09:55:32;3.93;;;3.60;;
42226;SDS011;27892;52.378;13.122;2022-12-07T09:58:00;5.10;;;3.90;;
42226;SDS011;27892;52.378;13.122;2022-12-07T10:00:26;3.50;;;3.20;;
42226;SDS011;27892;52.378;13.122;2022-12-07T10:05:30;4.00;;;3.40;;
42226;SDS011;27892;52.378;13.122;2022-12-07T10:08:02;4.30;;;3.60;;
42226;SDS011;27892;52.378;13.122;2022-12-07T10:10:32;4.40;;;3.80;;
42226;SDS011;27892;52.378;13.122;2022-12-07T10:13:03;4.30;;;3.90;;
42226;SDS011;27892;52.378;13.122;2022-12-07T10:15:41;4.90;;;4.33;;
42226;SDS011;27892;52.378;13.122;2022-12-07T10:18:20;4.00;;;3.60;;
42226;SDS011;27892;52.378;13.122;2022-12-07T10:21:02;4.73;;;4.23;;
42226;SDS011;27892;52.378;13.122;2022-12-07T10:23:29;4.30;;;3.90;;
42226;SDS011;27892;52.378;13.122;2022-12-07T10:25:55;5.90;;;3.67;;
42226;SDS011;27892;52.378;13.122;2022-12-07T10:28:21;5.03;;;3.87;;
42226;SDS011;27892;52.378;13.122;2022-12-07T10:30:57;4.70;;;3.70;;
42226;SDS011;27892;52.378;13.122;2022-12-07T10:35:57;4.10;;;3.40;;
42226;SDS011;27892;52.378;13.122;2022-12-07T10:38:25;4.10;;;3.47;;
42226;SDS011;27892;52.378;13.122;2022-12-07T10:41:07;4.10;;;3.60;;
42226;SDS011;27892;52.378;13.122;2022-12-07T10:43:34;3.83;;;3.33;;
42226;SDS011;27892;52.378;13.122;2022-12-07T10:46:14;3.50;;;3.20;;
42226;SDS011;27892;52.378;13.122;2022-12-07T10:59:52;5.83;;;3.97;;
42226;SDS011;27892;52.378;13.122;2022-12-07T11:02:30;3.20;;;2.90;;
42226;SDS011;27892;52.378;13.122;2022-12-07T11:05:45;3.20;;;2.90;;
42226;SDS011;27892;52.378;13.122;2022-12-07T11:07:59;6.33;;;3.37;;
42226;SDS011;27892;52.378;13.122;2022-12-07T11:10:53;3.53;;;3.10;;
42226;SDS011;27892;52.378;13.122;2022-12-07T11:17:03;3.10;;;2.80;;
42226;SDS011;27892;52.378;13.122;2022-12-07T11:20:01;6.93;;;4.97;;
42226;SDS011;27892;52.378;13.122;2022-12-07T11:22:49;6.20;;;4.33;;
42226;SDS011;27892;52.378;13.122;2022-12-07T11:25:24;3.97;;;3.33;;
42226;SDS011;27892;52.378;13.122;2022-12-07T11:30:51;3.77;;;3.20;;
42226;SDS011;27892;52.378;13.122;2022-12-07T11:36:37;4.00;;;3.23;;
42226;SDS011;27892;52.378;13.122;2022-12-07T11:39:06;3.50;;;3.10;;
42226;SDS011;27892;52.378;13.122;2022-12-07T11:41:52;6.27;;;3.57;;
42226;SDS011;27892;52.378;13.122;2022-12-07T11:47:17;3.30;;;3.00;;
42226;SDS011;27892;52.378;13.122;2022-12-07T11:50:09;5.73;;;3.50;;
42226;SDS011;27892;52.378;13.122;2022-12-07T11:55:22;3.60;;;3.13;;
42226;SDS011;27892;52.378;13.122;2022-12-07T11:58:53;3.57;;;2.90;;
42226;SDS011;27892;52.378;13.122;2022-12-07T12:03:36;4.93;;;3.50;;
42226;SDS011;27892;52.378;13.122;2022-12-07T12:06:05;4.00;;;3.20;;
42226;SDS011;27892;52.378;13.122;2022-12-07T12:08:36;3.37;;;2.90;;
42226;SDS011;27892;52.378;13.122;2022-12-07T12:16:38;4.07;;;2.90;;
42226;SDS011;27892;52.378;13.122;2022-12-07T12:22:17;2.90;;;2.20;;
42226;SDS011;27892;52.378;13.122;2022-12-07T12:24:50;2.93;;;2.40;;
42226;SDS011;27892;52.378;13.122;2022-12-07T12:27:21;4.97;;;3.40;;
42226;SDS011;27892;52.378;13.122;2022-12-07T12:30:04;5.23;;;3.13;;
42226;SDS011;27892;52.378;13.122;2022-12-07T12:32:50;5.17;;;3.57;;
42226;SDS011;27892;52.378;13.122;2022-12-07T12:35:35;4.60;;;3.20;;
42226;SDS011;27892;52.378;13.122;2022-12-07T12:40:58;4.37;;;3.40;;
42226;SDS011;27892;52.378;13.122;2022-12-07T12:43:41;3.87;;;2.90;;
42226;SDS011;27892;52.378;13.122;2022-12-07T12:54:15;3.87;;;2.50;;
42226;SDS011;27892;52.378;13.122;2022-12-07T13:02:22;4.00;;;2.80;;
42226;SDS011;27892;52.378;13.122;2022-12-07T13:10:25;4.50;;;2.57;;
42226;SDS011;27892;52.378;13.122;2022-12-07T13:13:03;2.97;;;2.40;;
42226;SDS011;27892;52.378;13.122;2022-12-07T13:15:52;3.20;;;2.30;;
42226;SDS011;27892;52.378;13.122;2022-12-07T13:23:31;5.20;;;2.50;;
42226;SDS011;27892;52.378;13.122;2022-12-07T13:29:17;4.67;;;2.63;;
42226;SDS011;27892;52.378;13.122;2022-12-07T13:31:55;2.90;;;2.40;;
42226;SDS011;27892;52.378;13.122;2022-12-07T13:36:59;2.27;;;2.00;;
42226;SDS011;27892;52.378;13.122;2022-12-07T13:39:49;4.63;;;2.67;;
42226;SDS011;27892;52.378;13.122;2022-12-07T13:44:56;3.07;;;2.57;;
42226;SDS011;27892;52.378;13.122;2022-12-07T13:49:59;3.13;;;2.70;;
42226;SDS011;27892;52.378;13.122;2022-12-07T13:52:29;3.40;;;2.60;;
42226;SDS011;27892;52.378;13.122;2022-12-07T13:54:57;4.37;;;2.50;;
42226;SDS011;27892;52.378;13.122;2022-12-07T13:57:33;2.80;;;2.50;;
42226;SDS011;27892;52.378;13.122;2022-12-07T14:00:01;3.50;;;2.23;;
42226;SDS011;27892;52.378;13.122;2022-12-07T14:02:32;4.87;;;2.50;;
42226;SDS011;27892;52.378;13.122;2022-12-07T14:08:35;4.33;;;2.73;;
42226;SDS011;27892;52.378;13.122;2022-12-07T14:10:53;3.93;;;2.70;;
42226;SDS011;27892;52.378;13.122;2022-12-07T14:15:52;6.10;;;2.80;;
42226;SDS011;27892;52.378;13.122;2022-12-07T14:18:36;4.90;;;2.70;;
42226;SDS011;27892;52.378;13.122;2022-12-07T14:21:14;3.10;;;2.30;;
42226;SDS011;27892;52.378;13.122;2022-12-07T14:23:45;3.33;;;2.80;;
42226;SDS011;27892;52.378;13.122;2022-12-07T14:26:26;6.50;;;3.13;;
42226;SDS011;27892;52.378;13.122;2022-12-07T14:28:52;3.37;;;2.63;;
42226;SDS011;27892;52.378;13.122;2022-12-07T14:31:18;3.50;;;2.67;;
42226;SDS011;27892;52.378;13.122;2022-12-07T14:33:48;3.30;;;2.63;;
42226;SDS011;27892;52.378;13.122;2022-12-07T14:36:14;3.83;;;2.93;;
42226;SDS011;27892;52.378;13.122;2022-12-07T14:38:40;5.00;;;2.70;;
42226;SDS011;27892;52.378;13.122;2022-12-07T14:41:09;4.93;;;3.00;;
42226;SDS011;27892;52.378;13.122;2022-12-07T14:43:58;5.63;;;2.70;;
42226;SDS011;27892;52.378;13.122;2022-12-07T14:46:24;4.43;;;2.47;;
42226;SDS011;27892;52.378;13.122;2022-12-07T14:48:50;6.67;;;2.77;;
42226;SDS011;27892;52.378;13.122;2022-12-07T14:51:15;2.97;;;2.40;;
42226;SDS011;27892;52.378;13.122;2022-12-07T14:53:42;3.23;;;2.53;;
42226;SDS011;27892;52.378;13.122;2022-12-07T14:56:13;5.00;;;2.53;;
42226;SDS011;27892;52.378;13.122;2022-12-07T14:58:39;9.33;;;4.50;;
42226;SDS011;27892;52.378;13.122;2022-12-07T15:01:05;9.03;;;5.40;;
42226;SDS011;27892;52.378;13.122;2022-12-07T15:03:31;10.60;;;6.83;;
42226;SDS011;27892;52.378;13.122;2022-12-07T15:05:59;5.00;;;3.53;;
42226;SDS011;27892;52.378;13.122;2022-12-07T15:08:25;3.00;;;2.40;;
42226;SDS011;27892;52.378;13.122;2022-12-07T15:10:50;3.57;;;2.50;;
42226;SDS011;27892;52.378;13.122;2022-12-07T15:13:16;7.13;;;2.53;;
42226;SDS011;27892;52.378;13.122;2022-12-07T15:16:00;6.20;;;2.80;;
42226;SDS011;27892;52.378;13.122;2022-12-07T15:18:26;2.73;;;2.20;;
42226;SDS011;27892;52.378;13.122;2022-12-07T15:20:51;2.93;;;2.20;;
42226;SDS011;27892;52.378;13.122;2022-12-07T15:23:17;3.57;;;2.50;;
42226;SDS011;27892;52.378;13.122;2022-12-07T15:25:43;4.57;;;2.47;;
42226;SDS011;27892;52.378;13.122;2022-12-07T15:28:10;2.67;;;2.23;;
42226;SDS011;27892;52.378;13.122;2022-12-07T15:30:40;5.23;;;2.83;;
42226;SDS011;27892;52.378;13.122;2022-12-07T15:33:07;5.87;;;2.80;;
42226;SDS011;27892;52.378;13.122;2022-12-07T15:35:33;3.53;;;2.70;;
42226;SDS011;27892;52.378;13.122;2022-12-07T15:38:03;4.30;;;2.97;;
42226;SDS011;27892;52.378;13.122;2022-12-07T15:40:31;3.00;;;2.50;;
42226;SDS011;27892;52.378;13.122;2022-12-07T15:42:57;5.23;;;2.77;;
42226;SDS011;27892;52.378;13.122;2022-12-07T15:45:22;3.73;;;2.93;;
42226;SDS011;27892;52.378;13.122;2022-12-07T15:47:51;5.30;;;3.13;;
42226;SDS011;27892;52.378;13.122;2022-12-07T15:50:16;3.43;;;2.90;;
42226;SDS011;27892;52.378;13.122;2022-12-07T15:52:42;6.03;;;3.13;;
42226;SDS011;27892;52.378;13.122;2022-12-07T15:55:11;6.83;;;3.03;;
42226;SDS011;27892;52.378;13.122;2022-12-07T15:57:37;4.53;;;2.87;;
42226;SDS011;27892;52.378;13.122;2022-12-07T16:00:04;5.40;;;3.00;;
42226;SDS011;27892;52.378;13.122;2022-12-07T16:02:31;5.40;;;2.97;;
42226;SDS011;27892;52.378;13.122;2022-12-07T16:04:57;4.77;;;2.83;;
42226;SDS011;27892;52.378;13.122;2022-12-07T16:07:22;7.27;;;4.37;;
42226;SDS011;27892;52.378;13.122;2022-12-07T16:09:48;7.17;;;4.27;;
42226;SDS011;27892;52.378;13.122;2022-12-07T16:12:14;6.73;;;3.10;;
42226;SDS011;27892;52.378;13.122;2022-12-07T16:14:40;4.73;;;2.70;;
42226;SDS011;27892;52.378;13.122;2022-12-07T16:17:10;5.03;;;2.90;;
42226;SDS011;27892;52.378;13.122;2022-12-07T16:19:35;4.90;;;2.60;;
42226;SDS011;27892;52.378;13.122;2022-12-07T16:22:02;4.20;;;2.77;;
42226;SDS011;27892;52.378;13.122;2022-12-07T16:24:33;5.17;;;3.27;;
42226;SDS011;27892;52.378;13.122;2022-12-07T16:27:02;5.43;;;3.00;;
42226;SDS011;27892;52.378;13.122;2022-12-07T16:29:30;6.87;;;3.20;;
42226;SDS011;27892;52.378;13.122;2022-12-07T16:31:58;4.07;;;3.23;;
42226;SDS011;27892;52.378;13.122;2022-12-07T16:34:24;4.07;;;2.80;;
42226;SDS011;27892;52.378;13.122;2022-12-07T16:36:50;3.40;;;2.80;;
42226;SDS011;27892;52.378;13.122;2022-12-07T16:39:15;3.50;;;3.03;;
42226;SDS011;27892;52.378;13.122;2022-12-07T16:41:43;5.43;;;3.90;;
42226;SDS011;27892;52.378;13.122;2022-12-07T16:44:09;5.80;;;3.67;;
42226;SDS011;27892;52.378;13.122;2022-12-07T16:46:37;7.40;;;3.33;;
42226;SDS011;27892;52.378;13.122;2022-12-07T16:49:03;4.70;;;3.00;;